sensor_id;sensor_type;location;lat;lon;timestamp;P1;durP1;ratioP1;P2;durP2;ratioP2
1004;SDS011;491;53.480;10.174;2023-03-13T00:02:09;14.60;;;5.10;;
1004;SDS011;491;53.480;10.174;2023-03-13T00:04:35;17.83;;;4.57;;
1004;SDS011;491;53.480;10.174;2023-03-13T00:07:01;14.73;;;5.30;;
1004;SDS011;491;53.480;10.174;2023-03-13T00:09:27;16.73;;;4.73;;
1004;SDS011;491;53.480;10.174;2023-03-13T00:11:53;17.43;;;4.60;;
1004;SDS011;491;53.480;10.174;2023-03-13T00:14:19;18.30;;;4.80;;
1004;SDS011;491;53.480;10.174;2023-03-13T00:16:44;19.47;;;5.73;;
1004;SDS011;491;53.480;10.174;2023-03-13T00:19:11;14.83;;;5.10;;
1004;SDS011;491;53.480;10.174;2023-03-13T00:21:40;14.10;;;4.67;;
1004;SDS011;491;53.480;10.174;2023-03-13T00:24:06;15.43;;;4.53;;
1004;SDS011;491;53.480;10.174;2023-03-13T00:26:34;15.53;;;5.63;;
1004;SDS011;491;53.480;10.174;2023-03-13T00:29:00;16.07;;;4.80;;
1004;SDS011;491;53.480;10.174;2023-03-13T00:31:27;14.97;;;5.10;;
1004;SDS011;491;53.480;10.174;2023-03-13T00:33:54;13.87;;;5.00;;
1004;SDS011;491;53.480;10.174;2023-03-13T00:36:23;16.00;;;3.50;;
1004;SDS011;491;53.480;10.174;2023-03-13T00:38:49;14.73;;;4.27;;
1004;SDS011;491;53.480;10.174;2023-03-13T00:41:23;9.23;;;4.27;;
1004;SDS011;491;53.480;10.174;2023-03-13T00:43:49;21.23;;;3.37;;
1004;SDS011;491;53.480;10.174;2023-03-13T00:46:15;10.13;;;4.10;;
1004;SDS011;491;53.480;10.174;2023-03-13T00:48:42;20.13;;;5.47;;
1004;SDS011;491;53.480;10.174;2023-03-13T00:51:09;14.40;;;4.67;;
1004;SDS011;491;53.480;10.174;2023-03-13T00:53:35;20.33;;;3.83;;
1004;SDS011;491;53.480;10.174;2023-03-13T00:56:19;22.23;;;5.00;;
1004;SDS011;491;53.480;10.174;2023-03-13T00:58:51;14.97;;;4.70;;
1004;SDS011;491;53.480;10.174;2023-03-13T01:01:18;16.47;;;4.03;;
1004;SDS011;491;53.480;10.174;2023-03-13T01:03:46;13.73;;;3.10;;
1004;SDS011;491;53.480;10.174;2023-03-13T01:06:14;17.60;;;3.63;;
1004;SDS011;491;53.480;10.174;2023-03-13T01:08:40;23.50;;;5.70;;
1004;SDS011;491;53.480;10.174;2023-03-13T01:11:07;22.17;;;4.43;;
1004;SDS011;491;53.480;10.174;2023-03-13T01:13:34;23.87;;;5.03;;
1004;SDS011;491;53.480;10.174;2023-03-13T01:16:04;18.43;;;5.90;;
1004;SDS011;491;53.480;10.174;2023-03-13T01:18:30;16.67;;;4.67;;
1004;SDS011;491;53.480;10.174;2023-03-13T01:20:56;19.20;;;5.00;;
1004;SDS011;491;53.480;10.174;2023-03-13T01:23:22;16.07;;;5.40;;
1004;SDS011;491;53.480;10.174;2023-03-13T01:25:48;12.73;;;4.20;;
1004;SDS011;491;53.480;10.174;2023-03-13T01:28:14;12.33;;;3.60;;
1004;SDS011;491;53.480;10.174;2023-03-13T01:30:41;22.07;;;5.67;;
1004;SDS011;491;53.480;10.174;2023-03-13T01:33:08;14.57;;;4.27;;
1004;SDS011;491;53.480;10.174;2023-03-13T01:35:34;20.97;;;5.23;;
1004;SDS011;491;53.480;10.174;2023-03-13T01:38:03;16.37;;;4.70;;
1004;SDS011;491;53.480;10.174;2023-03-13T01:40:29;23.40;;;5.00;;
1004;SDS011;491;53.480;10.174;2023-03-13T01:42:58;13.63;;;4.83;;
1004;SDS011;491;53.480;10.174;2023-03-13T01:48:09;15.57;;;5.00;;
1004;SDS011;491;53.480;10.174;2023-03-13T01:50:35;18.20;;;4.50;;
1004;SDS011;491;53.480;10.174;2023-03-13T01:53:01;12.17;;;5.53;;
1004;SDS011;491;53.480;10.174;2023-03-13T01:55:27;21.70;;;4.60;;
1004;SDS011;491;53.480;10.174;2023-03-13T01:57:53;16.60;;;4.90;;
1004;SDS011;491;53.480;10.174;2023-03-13T02:00:23;23.60;;;6.17;;
1004;SDS011;491;53.480;10.174;2023-03-13T02:02:50;20.33;;;5.43;;
1004;SDS011;491;53.480;10.174;2023-03-13T02:05:18;12.97;;;3.70;;
1004;SDS011;491;53.480;10.174;2023-03-13T02:07:45;17.70;;;3.80;;
1004;SDS011;491;53.480;10.174;2023-03-13T02:10:12;18.83;;;4.13;;
1004;SDS011;491;53.480;10.174;2023-03-13T02:12:40;16.20;;;4.07;;
1004;SDS011;491;53.480;10.174;2023-03-13T02:15:11;12.83;;;4.10;;
1004;SDS011;491;53.480;10.174;2023-03-13T02:17:37;18.90;;;6.20;;
1004;SDS011;491;53.480;10.174;2023-03-13T02:20:04;17.00;;;3.80;;
1004;SDS011;491;53.480;10.174;2023-03-13T02:22:37;16.13;;;3.97;;
1004;SDS011;491;53.480;10.174;2023-03-13T02:25:10;18.20;;;4.03;;
1004;SDS011;491;53.480;10.174;2023-03-13T02:27:41;16.80;;;4.33;;
1004;SDS011;491;53.480;10.174;2023-03-13T02:30:08;21.13;;;3.70;;
1004;SDS011;491;53.480;10.174;2023-03-13T02:32:34;18.90;;;3.90;;
1004;SDS011;491;53.480;10.174;2023-03-13T02:35:02;19.13;;;4.57;;
1004;SDS011;491;53.480;10.174;2023-03-13T02:37:29;19.60;;;4.83;;
1004;SDS011;491;53.480;10.174;2023-03-13T02:39:55;15.60;;;4.80;;
1004;SDS011;491;53.480;10.174;2023-03-13T02:42:24;21.43;;;4.50;;
1004;SDS011;491;53.480;10.174;2023-03-13T02:44:50;18.30;;;4.37;;
1004;SDS011;491;53.480;10.174;2023-03-13T02:47:19;20.17;;;4.77;;
1004;SDS011;491;53.480;10.174;2023-03-13T02:49:46;14.73;;;4.27;;
1004;SDS011;491;53.480;10.174;2023-03-13T02:52:13;14.00;;;3.23;;
1004;SDS011;491;53.480;10.174;2023-03-13T02:54:41;14.57;;;4.07;;
1004;SDS011;491;53.480;10.174;2023-03-13T02:57:09;15.53;;;4.13;;
1004;SDS011;491;53.480;10.174;2023-03-13T02:59:35;11.37;;;3.00;;
1004;SDS011;491;53.480;10.174;2023-03-13T03:02:01;15.20;;;2.87;;
1004;SDS011;491;53.480;10.174;2023-03-13T03:04:28;18.00;;;3.40;;
1004;SDS011;491;53.480;10.174;2023-03-13T03:06:54;19.13;;;4.00;;
1004;SDS011;491;53.480;10.174;2023-03-13T03:09:20;14.40;;;2.90;;
1004;SDS011;491;53.480;10.174;2023-03-13T03:11:46;14.77;;;3.90;;
1004;SDS011;491;53.480;10.174;2023-03-13T03:14:12;14.97;;;4.40;;
1004;SDS011;491;53.480;10.174;2023-03-13T03:16:38;17.10;;;4.13;;
1004;SDS011;491;53.480;10.174;2023-03-13T03:19:04;12.93;;;3.70;;
1004;SDS011;491;53.480;10.174;2023-03-13T03:21:34;20.93;;;4.20;;
1004;SDS011;491;53.480;10.174;2023-03-13T03:24:01;14.97;;;3.30;;
1004;SDS011;491;53.480;10.174;2023-03-13T03:26:27;14.33;;;2.93;;
1004;SDS011;491;53.480;10.174;2023-03-13T03:28:53;13.60;;;2.90;;
1004;SDS011;491;53.480;10.174;2023-03-13T03:31:21;15.10;;;3.57;;
1004;SDS011;491;53.480;10.174;2023-03-13T03:33:47;12.90;;;2.90;;
1004;SDS011;491;53.480;10.174;2023-03-13T03:36:14;15.87;;;3.00;;
1004;SDS011;491;53.480;10.174;2023-03-13T03:38:41;11.07;;;3.90;;
1004;SDS011;491;53.480;10.174;2023-03-13T03:41:09;17.37;;;3.87;;
1004;SDS011;491;53.480;10.174;2023-03-13T03:43:35;16.47;;;3.10;;
1004;SDS011;491;53.480;10.174;2023-03-13T03:46:01;14.13;;;4.17;;
1004;SDS011;491;53.480;10.174;2023-03-13T03:48:27;16.93;;;2.83;;
1004;SDS011;491;53.480;10.174;2023-03-13T03:50:54;12.30;;;3.43;;
1004;SDS011;491;53.480;10.174;2023-03-13T03:53:20;10.63;;;3.10;;
1004;SDS011;491;53.480;10.174;2023-03-13T03:55:46;14.77;;;3.07;;
1004;SDS011;491;53.480;10.174;2023-03-13T03:58:12;13.93;;;3.50;;
1004;SDS011;491;53.480;10.174;2023-03-13T04:00:38;20.27;;;3.43;;
1004;SDS011;491;53.480;10.174;2023-03-13T04:03:03;16.40;;;3.10;;
1004;SDS011;491;53.480;10.174;2023-03-13T04:05:32;11.17;;;2.97;;
1004;SDS011;491;53.480;10.174;2023-03-13T04:07:58;15.43;;;3.60;;
1004;SDS011;491;53.480;10.174;2023-03-13T04:10:24;13.53;;;2.63;;
1004;SDS011;491;53.480;10.174;2023-03-13T04:12:50;14.23;;;3.10;;
1004;SDS011;491;53.480;10.174;2023-03-13T04:15:16;14.70;;;2.77;;
1004;SDS011;491;53.480;10.174;2023-03-13T04:17:42;13.30;;;2.97;;
1004;SDS011;491;53.480;10.174;2023-03-13T04:20:08;13.00;;;3.10;;
1004;SDS011;491;53.480;10.174;2023-03-13T04:22:35;12.27;;;2.60;;
1004;SDS011;491;53.480;10.174;2023-03-13T04:25:01;13.90;;;3.23;;
1004;SDS011;491;53.480;10.174;2023-03-13T04:27:27;16.90;;;2.20;;
1004;SDS011;491;53.480;10.174;2023-03-13T04:29:53;11.37;;;2.77;;
1004;SDS011;491;53.480;10.174;2023-03-13T04:32:19;9.13;;;2.60;;
1004;SDS011;491;53.480;10.174;2023-03-13T04:34:44;10.97;;;2.40;;
1004;SDS011;491;53.480;10.174;2023-03-13T04:37:10;10.80;;;1.80;;
1004;SDS011;491;53.480;10.174;2023-03-13T04:39:36;8.63;;;2.50;;
1004;SDS011;491;53.480;10.174;2023-03-13T04:42:02;11.93;;;2.93;;
1004;SDS011;491;53.480;10.174;2023-03-13T04:44:28;13.37;;;3.20;;
1004;SDS011;491;53.480;10.174;2023-03-13T04:46:54;10.87;;;2.03;;
1004;SDS011;491;53.480;10.174;2023-03-13T04:49:20;13.87;;;2.53;;
1004;SDS011;491;53.480;10.174;2023-03-13T04:51:46;19.80;;;3.53;;
1004;SDS011;491;53.480;10.174;2023-03-13T04:54:12;11.30;;;3.57;;
1004;SDS011;491;53.480;10.174;2023-03-13T04:56:38;10.63;;;2.60;;
1004;SDS011;491;53.480;10.174;2023-03-13T04:59:05;6.77;;;2.60;;
1004;SDS011;491;53.480;10.174;2023-03-13T05:01:32;14.13;;;1.93;;
1004;SDS011;491;53.480;10.174;2023-03-13T05:04:02;6.70;;;1.73;;
1004;SDS011;491;53.480;10.174;2023-03-13T05:06:47;12.70;;;2.13;;
1004;SDS011;491;53.480;10.174;2023-03-13T05:09:13;13.00;;;2.83;;
1004;SDS011;491;53.480;10.174;2023-03-13T05:11:39;14.67;;;3.13;;
1004;SDS011;491;53.480;10.174;2023-03-13T05:14:08;11.90;;;2.80;;
1004;SDS011;491;53.480;10.174;2023-03-13T05:16:35;8.00;;;3.03;;
1004;SDS011;491;53.480;10.174;2023-03-13T05:19:01;10.50;;;1.37;;
1004;SDS011;491;53.480;10.174;2023-03-13T05:21:27;11.77;;;2.20;;
1004;SDS011;491;53.480;10.174;2023-03-13T05:23:53;20.20;;;5.30;;
1004;SDS011;491;53.480;10.174;2023-03-13T05:26:19;14.47;;;2.70;;
1004;SDS011;491;53.480;10.174;2023-03-13T05:28:45;9.60;;;3.10;;
1004;SDS011;491;53.480;10.174;2023-03-13T05:31:11;13.53;;;3.23;;
1004;SDS011;491;53.480;10.174;2023-03-13T05:33:37;11.63;;;3.00;;
1004;SDS011;491;53.480;10.174;2023-03-13T05:36:03;16.10;;;2.70;;
1004;SDS011;491;53.480;10.174;2023-03-13T05:38:29;14.10;;;2.30;;
1004;SDS011;491;53.480;10.174;2023-03-13T05:40:54;5.30;;;1.63;;
1004;SDS011;491;53.480;10.174;2023-03-13T05:43:20;12.80;;;2.87;;
1004;SDS011;491;53.480;10.174;2023-03-13T05:45:46;16.43;;;2.60;;
1004;SDS011;491;53.480;10.174;2023-03-13T05:48:12;17.93;;;2.57;;
1004;SDS011;491;53.480;10.174;2023-03-13T05:50:38;7.40;;;2.83;;
1004;SDS011;491;53.480;10.174;2023-03-13T05:53:04;16.77;;;3.20;;
1004;SDS011;491;53.480;10.174;2023-03-13T05:55:30;6.27;;;2.40;;
1004;SDS011;491;53.480;10.174;2023-03-13T05:57:56;10.37;;;1.90;;
1004;SDS011;491;53.480;10.174;2023-03-13T06:00:22;7.93;;;2.50;;
1004;SDS011;491;53.480;10.174;2023-03-13T06:02:48;17.20;;;3.20;;
1004;SDS011;491;53.480;10.174;2023-03-13T06:05:13;4.97;;;1.23;;
1004;SDS011;491;53.480;10.174;2023-03-13T06:07:39;14.30;;;2.87;;
1004;SDS011;491;53.480;10.174;2023-03-13T06:10:05;14.03;;;2.83;;
1004;SDS011;491;53.480;10.174;2023-03-13T06:12:31;8.80;;;1.67;;
1004;SDS011;491;53.480;10.174;2023-03-13T06:14:57;6.43;;;1.37;;
1004;SDS011;491;53.480;10.174;2023-03-13T06:17:23;4.87;;;1.10;;
1004;SDS011;491;53.480;10.174;2023-03-13T06:19:49;5.40;;;1.70;;
1004;SDS011;491;53.480;10.174;2023-03-13T06:22:15;6.43;;;1.13;;
1004;SDS011;491;53.480;10.174;2023-03-13T06:24:41;7.93;;;1.43;;
1004;SDS011;491;53.480;10.174;2023-03-13T06:27:09;5.67;;;2.00;;
1004;SDS011;491;53.480;10.174;2023-03-13T06:29:35;5.53;;;0.97;;
1004;SDS011;491;53.480;10.174;2023-03-13T06:32:01;2.80;;;1.73;;
1004;SDS011;491;53.480;10.174;2023-03-13T06:34:27;4.73;;;1.00;;
1004;SDS011;491;53.480;10.174;2023-03-13T06:36:52;6.73;;;1.53;;
1004;SDS011;491;53.480;10.174;2023-03-13T06:39:18;3.93;;;1.60;;
1004;SDS011;491;53.480;10.174;2023-03-13T06:41:44;1.50;;;1.10;;
1004;SDS011;491;53.480;10.174;2023-03-13T06:44:10;6.03;;;1.27;;
1004;SDS011;491;53.480;10.174;2023-03-13T06:46:36;3.93;;;0.90;;
1004;SDS011;491;53.480;10.174;2023-03-13T06:49:02;2.13;;;0.70;;
1004;SDS011;491;53.480;10.174;2023-03-13T06:51:29;3.80;;;0.63;;
1004;SDS011;491;53.480;10.174;2023-03-13T06:53:55;1.73;;;0.77;;
1004;SDS011;491;53.480;10.174;2023-03-13T06:56:21;6.80;;;0.87;;
1004;SDS011;491;53.480;10.174;2023-03-13T06:58:47;2.07;;;1.13;;
1004;SDS011;491;53.480;10.174;2023-03-13T07:01:14;1.80;;;0.53;;
1004;SDS011;491;53.480;10.174;2023-03-13T07:03:40;2.93;;;0.70;;
1004;SDS011;491;53.480;10.174;2023-03-13T07:06:07;3.10;;;0.60;;
1004;SDS011;491;53.480;10.174;2023-03-13T07:08:33;3.70;;;1.40;;
1004;SDS011;491;53.480;10.174;2023-03-13T07:11:01;4.63;;;1.17;;
1004;SDS011;491;53.480;10.174;2023-03-13T07:13:28;4.20;;;1.07;;
1004;SDS011;491;53.480;10.174;2023-03-13T07:15:54;3.10;;;1.13;;
1004;SDS011;491;53.480;10.174;2023-03-13T07:18:21;4.60;;;1.43;;
1004;SDS011;491;53.480;10.174;2023-03-13T07:20:51;2.33;;;1.03;;
1004;SDS011;491;53.480;10.174;2023-03-13T07:23:18;4.07;;;0.90;;
1004;SDS011;491;53.480;10.174;2023-03-13T07:25:44;2.40;;;1.27;;
1004;SDS011;491;53.480;10.174;2023-03-13T07:28:16;4.00;;;0.90;;
1004;SDS011;491;53.480;10.174;2023-03-13T07:30:42;3.40;;;0.60;;
1004;SDS011;491;53.480;10.174;2023-03-13T07:33:08;3.50;;;1.10;;
1004;SDS011;491;53.480;10.174;2023-03-13T07:35:34;4.57;;;1.03;;
1004;SDS011;491;53.480;10.174;2023-03-13T07:38:03;5.70;;;1.20;;
1004;SDS011;491;53.480;10.174;2023-03-13T07:40:28;3.73;;;1.20;;
1004;SDS011;491;53.480;10.174;2023-03-13T07:42:54;4.67;;;1.07;;
1004;SDS011;491;53.480;10.174;2023-03-13T07:45:20;7.97;;;1.70;;
1004;SDS011;491;53.480;10.174;2023-03-13T07:47:46;5.63;;;1.37;;
1004;SDS011;491;53.480;10.174;2023-03-13T07:50:12;4.40;;;1.33;;
1004;SDS011;491;53.480;10.174;2023-03-13T07:52:38;3.67;;;1.30;;
1004;SDS011;491;53.480;10.174;2023-03-13T07:55:04;4.67;;;0.70;;
1004;SDS011;491;53.480;10.174;2023-03-13T07:57:30;4.57;;;0.80;;
1004;SDS011;491;53.480;10.174;2023-03-13T07:59:56;6.13;;;1.30;;
1004;SDS011;491;53.480;10.174;2023-03-13T08:02:22;3.13;;;1.00;;
1004;SDS011;491;53.480;10.174;2023-03-13T08:04:50;4.70;;;0.90;;
1004;SDS011;491;53.480;10.174;2023-03-13T08:07:16;3.53;;;0.97;;
1004;SDS011;491;53.480;10.174;2023-03-13T08:09:42;3.40;;;0.83;;
1004;SDS011;491;53.480;10.174;2023-03-13T08:12:08;2.80;;;1.90;;
1004;SDS011;491;53.480;10.174;2023-03-13T08:14:34;4.23;;;1.30;;
1004;SDS011;491;53.480;10.174;2023-03-13T08:17:00;3.40;;;1.27;;
1004;SDS011;491;53.480;10.174;2023-03-13T08:19:26;2.77;;;1.47;;
1004;SDS011;491;53.480;10.174;2023-03-13T08:21:52;4.17;;;2.20;;
1004;SDS011;491;53.480;10.174;2023-03-13T08:24:18;4.23;;;1.87;;
1004;SDS011;491;53.480;10.174;2023-03-13T08:26:43;4.00;;;2.03;;
1004;SDS011;491;53.480;10.174;2023-03-13T08:29:10;6.87;;;1.50;;
1004;SDS011;491;53.480;10.174;2023-03-13T08:31:40;3.53;;;1.57;;
1004;SDS011;491;53.480;10.174;2023-03-13T08:34:06;2.30;;;1.30;;
1004;SDS011;491;53.480;10.174;2023-03-13T08:36:34;3.67;;;2.00;;
1004;SDS011;491;53.480;10.174;2023-03-13T08:39:01;7.77;;;2.10;;
1004;SDS011;491;53.480;10.174;2023-03-13T08:41:29;3.50;;;2.00;;
1004;SDS011;491;53.480;10.174;2023-03-13T08:43:57;6.87;;;2.60;;
1004;SDS011;491;53.480;10.174;2023-03-13T08:46:24;7.10;;;2.47;;
1004;SDS011;491;53.480;10.174;2023-03-13T08:48:50;4.17;;;3.03;;
1004;SDS011;491;53.480;10.174;2023-03-13T08:51:17;4.83;;;3.10;;
1004;SDS011;491;53.480;10.174;2023-03-13T08:53:44;8.80;;;3.10;;
1004;SDS011;491;53.480;10.174;2023-03-13T08:56:10;6.57;;;2.90;;
1004;SDS011;491;53.480;10.174;2023-03-13T08:58:36;4.47;;;3.50;;
1004;SDS011;491;53.480;10.174;2023-03-13T09:01:06;4.57;;;2.77;;
1004;SDS011;491;53.480;10.174;2023-03-13T09:03:33;5.73;;;3.40;;
1004;SDS011;491;53.480;10.174;2023-03-13T09:06:01;5.97;;;3.87;;
1004;SDS011;491;53.480;10.174;2023-03-13T09:08:27;9.50;;;3.87;;
1004;SDS011;491;53.480;10.174;2023-03-13T09:10:54;5.60;;;3.57;;
1004;SDS011;491;53.480;10.174;2023-03-13T09:13:21;5.67;;;4.30;;
1004;SDS011;491;53.480;10.174;2023-03-13T09:15:57;6.97;;;3.80;;
1004;SDS011;491;53.480;10.174;2023-03-13T09:18:23;7.47;;;3.63;;
1004;SDS011;491;53.480;10.174;2023-03-13T09:20:49;7.47;;;3.50;;
1004;SDS011;491;53.480;10.174;2023-03-13T09:23:15;5.67;;;3.60;;
1004;SDS011;491;53.480;10.174;2023-03-13T09:25:41;7.23;;;4.03;;
1004;SDS011;491;53.480;10.174;2023-03-13T09:28:07;10.37;;;4.67;;
1004;SDS011;491;53.480;10.174;2023-03-13T09:30:33;5.43;;;3.60;;
1004;SDS011;491;53.480;10.174;2023-03-13T09:32:59;7.10;;;4.00;;
1004;SDS011;491;53.480;10.174;2023-03-13T09:35:25;9.33;;;3.37;;
1004;SDS011;491;53.480;10.174;2023-03-13T09:37:51;9.07;;;4.23;;
1004;SDS011;491;53.480;10.174;2023-03-13T09:40:18;6.33;;;3.77;;
1004;SDS011;491;53.480;10.174;2023-03-13T09:42:46;6.23;;;3.93;;
1004;SDS011;491;53.480;10.174;2023-03-13T09:45:15;6.37;;;4.63;;
1004;SDS011;491;53.480;10.174;2023-03-13T09:47:46;6.47;;;4.50;;
1004;SDS011;491;53.480;10.174;2023-03-13T09:50:24;6.17;;;3.47;;
1004;SDS011;491;53.480;10.174;2023-03-13T09:52:53;8.73;;;4.37;;
1004;SDS011;491;53.480;10.174;2023-03-13T09:55:21;6.80;;;3.80;;
1004;SDS011;491;53.480;10.174;2023-03-13T09:57:51;7.23;;;4.50;;
1004;SDS011;491;53.480;10.174;2023-03-13T10:00:21;8.93;;;5.13;;
1004;SDS011;491;53.480;10.174;2023-03-13T10:02:54;5.50;;;3.17;;
1004;SDS011;491;53.480;10.174;2023-03-13T10:05:21;10.37;;;4.30;;
1004;SDS011;491;53.480;10.174;2023-03-13T10:07:48;6.70;;;3.50;;
1004;SDS011;491;53.480;10.174;2023-03-13T10:12:45;6.90;;;3.50;;
1004;SDS011;491;53.480;10.174;2023-03-13T10:15:17;4.40;;;3.50;;
1004;SDS011;491;53.480;10.174;2023-03-13T10:17:49;10.53;;;3.87;;
1004;SDS011;491;53.480;10.174;2023-03-13T10:20:25;8.20;;;3.70;;
1004;SDS011;491;53.480;10.174;2023-03-13T10:22:55;5.80;;;3.33;;
1004;SDS011;491;53.480;10.174;2023-03-13T10:25:35;5.13;;;3.47;;
1004;SDS011;491;53.480;10.174;2023-03-13T10:28:02;8.00;;;2.70;;
1004;SDS011;491;53.480;10.174;2023-03-13T10:30:35;6.60;;;2.80;;
1004;SDS011;491;53.480;10.174;2023-03-13T10:35:41;5.13;;;2.00;;
1004;SDS011;491;53.480;10.174;2023-03-13T10:38:09;4.00;;;2.87;;
1004;SDS011;491;53.480;10.174;2023-03-13T10:40:35;3.97;;;2.20;;
1004;SDS011;491;53.480;10.174;2023-03-13T10:43:03;5.67;;;1.70;;
1004;SDS011;491;53.480;10.174;2023-03-13T10:45:33;5.10;;;2.60;;
1004;SDS011;491;53.480;10.174;2023-03-13T10:48:01;4.60;;;2.40;;
1004;SDS011;491;53.480;10.174;2023-03-13T10:50:31;3.60;;;1.50;;
1004;SDS011;491;53.480;10.174;2023-03-13T10:52:57;4.73;;;2.30;;
1004;SDS011;491;53.480;10.174;2023-03-13T10:55:32;3.93;;;1.13;;
1004;SDS011;491;53.480;10.174;2023-03-13T10:57:59;2.93;;;0.77;;
1004;SDS011;491;53.480;10.174;2023-03-13T11:02:51;1.83;;;1.43;;
1004;SDS011;491;53.480;10.174;2023-03-13T11:07:51;2.30;;;0.93;;
1004;SDS011;491;53.480;10.174;2023-03-13T11:10:23;3.60;;;1.30;;
1004;SDS011;491;53.480;10.174;2023-03-13T11:12:50;2.40;;;1.43;;
1004;SDS011;491;53.480;10.174;2023-03-13T11:15:30;3.53;;;1.20;;
1004;SDS011;491;53.480;10.174;2023-03-13T11:18:05;4.10;;;1.30;;
1004;SDS011;491;53.480;10.174;2023-03-13T11:20:35;3.97;;;1.30;;
1004;SDS011;491;53.480;10.174;2023-03-13T11:25:57;4.50;;;1.53;;
1004;SDS011;491;53.480;10.174;2023-03-13T11:28:41;1.63;;;0.83;;
1004;SDS011;491;53.480;10.174;2023-03-13T11:31:20;5.07;;;1.17;;
1004;SDS011;491;53.480;10.174;2023-03-13T11:36:51;1.30;;;1.00;;
1004;SDS011;491;53.480;10.174;2023-03-13T11:55:24;1.93;;;0.70;;
1004;SDS011;491;53.480;10.174;2023-03-13T12:00:47;3.03;;;0.93;;
1004;SDS011;491;53.480;10.174;2023-03-13T12:05:48;2.23;;;0.73;;
1004;SDS011;491;53.480;10.174;2023-03-13T12:08:35;2.27;;;0.50;;
1004;SDS011;491;53.480;10.174;2023-03-13T12:11:04;2.13;;;0.47;;
1004;SDS011;491;53.480;10.174;2023-03-13T12:13:31;1.60;;;0.50;;
1004;SDS011;491;53.480;10.174;2023-03-13T12:15:59;1.10;;;0.40;;
1004;SDS011;491;53.480;10.174;2023-03-13T12:18:30;2.30;;;0.63;;
1004;SDS011;491;53.480;10.174;2023-03-13T12:21:02;1.77;;;0.50;;
1004;SDS011;491;53.480;10.174;2023-03-13T12:23:49;5.93;;;0.60;;
1004;SDS011;491;53.480;10.174;2023-03-13T12:26:18;2.67;;;0.30;;
1004;SDS011;491;53.480;10.174;2023-03-13T12:28:47;1.60;;;0.63;;
1004;SDS011;491;53.480;10.174;2023-03-13T12:36:19;1.50;;;0.60;;
1004;SDS011;491;53.480;10.174;2023-03-13T12:38:50;1.47;;;0.40;;
1004;SDS011;491;53.480;10.174;2023-03-13T12:41:20;2.70;;;0.20;;
1004;SDS011;491;53.480;10.174;2023-03-13T12:43:49;2.60;;;0.30;;
1004;SDS011;491;53.480;10.174;2023-03-13T12:48:49;0.80;;;0.50;;
1004;SDS011;491;53.480;10.174;2023-03-13T12:51:25;2.17;;;0.50;;
1004;SDS011;491;53.480;10.174;2023-03-13T12:54:01;1.50;;;0.40;;
1004;SDS011;491;53.480;10.174;2023-03-13T12:56:32;1.43;;;0.47;;
1004;SDS011;491;53.480;10.174;2023-03-13T12:59:06;1.83;;;0.43;;
1004;SDS011;491;53.480;10.174;2023-03-13T13:01:33;1.50;;;0.50;;
1004;SDS011;491;53.480;10.174;2023-03-13T13:04:04;1.87;;;0.70;;
1004;SDS011;491;53.480;10.174;2023-03-13T13:09:20;2.83;;;0.47;;
1004;SDS011;491;53.480;10.174;2023-03-13T13:11:47;0.80;;;0.43;;
1004;SDS011;491;53.480;10.174;2023-03-13T13:16:45;1.10;;;0.20;;
1004;SDS011;491;53.480;10.174;2023-03-13T13:19:41;1.63;;;0.43;;
1004;SDS011;491;53.480;10.174;2023-03-13T13:24:50;3.57;;;0.67;;
1004;SDS011;491;53.480;10.174;2023-03-13T13:30:24;4.97;;;0.90;;
1004;SDS011;491;53.480;10.174;2023-03-13T13:32:50;0.80;;;0.30;;
1004;SDS011;491;53.480;10.174;2023-03-13T13:35:29;1.47;;;0.20;;
1004;SDS011;491;53.480;10.174;2023-03-13T13:38:41;1.70;;;0.33;;
1004;SDS011;491;53.480;10.174;2023-03-13T13:40:58;3.03;;;0.40;;
1004;SDS011;491;53.480;10.174;2023-03-13T13:43:24;3.43;;;0.50;;
1004;SDS011;491;53.480;10.174;2023-03-13T13:46:00;6.40;;;0.87;;
1004;SDS011;491;53.480;10.174;2023-03-13T13:48:30;1.53;;;0.40;;
1004;SDS011;491;53.480;10.174;2023-03-13T13:56:13;5.70;;;0.70;;
1004;SDS011;491;53.480;10.174;2023-03-13T13:58:51;1.57;;;0.40;;
1004;SDS011;491;53.480;10.174;2023-03-13T14:01:20;1.60;;;0.47;;
1004;SDS011;491;53.480;10.174;2023-03-13T14:03:46;1.87;;;0.90;;
1004;SDS011;491;53.480;10.174;2023-03-13T14:06:46;2.93;;;0.97;;
1004;SDS011;491;53.480;10.174;2023-03-13T14:09:13;0.60;;;0.43;;
1004;SDS011;491;53.480;10.174;2023-03-13T14:11:41;2.20;;;0.43;;
1004;SDS011;491;53.480;10.174;2023-03-13T14:14:08;1.27;;;0.50;;
1004;SDS011;491;53.480;10.174;2023-03-13T14:16:34;1.70;;;0.77;;
1004;SDS011;491;53.480;10.174;2023-03-13T14:19:01;3.03;;;0.97;;
1004;SDS011;491;53.480;10.174;2023-03-13T14:21:27;1.10;;;0.40;;
1004;SDS011;491;53.480;10.174;2023-03-13T14:23:53;2.13;;;0.43;;
1004;SDS011;491;53.480;10.174;2023-03-13T14:26:26;2.27;;;0.40;;
1004;SDS011;491;53.480;10.174;2023-03-13T14:28:53;0.70;;;0.20;;
1004;SDS011;491;53.480;10.174;2023-03-13T14:31:21;1.53;;;0.30;;
1004;SDS011;491;53.480;10.174;2023-03-13T14:33:47;4.93;;;0.80;;
1004;SDS011;491;53.480;10.174;2023-03-13T14:36:13;3.23;;;0.20;;
1004;SDS011;491;53.480;10.174;2023-03-13T14:38:39;2.30;;;0.60;;
1004;SDS011;491;53.480;10.174;2023-03-13T14:41:05;2.83;;;0.53;;
1004;SDS011;491;53.480;10.174;2023-03-13T14:43:35;3.23;;;0.40;;
1004;SDS011;491;53.480;10.174;2023-03-13T14:46:11;2.50;;;0.30;;
1004;SDS011;491;53.480;10.174;2023-03-13T14:48:38;1.67;;;0.40;;
1004;SDS011;491;53.480;10.174;2023-03-13T14:51:08;2.20;;;0.47;;
1004;SDS011;491;53.480;10.174;2023-03-13T14:53:35;3.17;;;0.33;;
1004;SDS011;491;53.480;10.174;2023-03-13T14:56:16;2.77;;;0.50;;
1004;SDS011;491;53.480;10.174;2023-03-13T14:58:45;3.17;;;0.50;;
1004;SDS011;491;53.480;10.174;2023-03-13T15:01:25;4.77;;;0.50;;
1004;SDS011;491;53.480;10.174;2023-03-13T15:03:54;2.90;;;0.50;;
1004;SDS011;491;53.480;10.174;2023-03-13T15:06:21;2.20;;;0.40;;
1004;SDS011;491;53.480;10.174;2023-03-13T15:08:48;1.43;;;0.27;;
1004;SDS011;491;53.480;10.174;2023-03-13T15:11:33;1.87;;;1.43;;
1004;SDS011;491;53.480;10.174;2023-03-13T15:13:59;2.73;;;0.97;;
1004;SDS011;491;53.480;10.174;2023-03-13T15:16:26;1.40;;;0.67;;
1004;SDS011;491;53.480;10.174;2023-03-13T15:18:53;1.67;;;0.60;;
1004;SDS011;491;53.480;10.174;2023-03-13T15:21:20;3.47;;;0.50;;
1004;SDS011;491;53.480;10.174;2023-03-13T15:23:51;1.63;;;0.30;;
1004;SDS011;491;53.480;10.174;2023-03-13T15:26:17;2.30;;;0.30;;
1004;SDS011;491;53.480;10.174;2023-03-13T15:28:43;1.50;;;0.23;;
1004;SDS011;491;53.480;10.174;2023-03-13T15:31:12;3.50;;;0.50;;
1004;SDS011;491;53.480;10.174;2023-03-13T15:33:38;2.13;;;0.40;;
1004;SDS011;491;53.480;10.174;2023-03-13T15:36:05;1.80;;;0.53;;
1004;SDS011;491;53.480;10.174;2023-03-13T15:38:31;2.40;;;0.70;;
1004;SDS011;491;53.480;10.174;2023-03-13T15:40:57;1.33;;;0.40;;
1004;SDS011;491;53.480;10.174;2023-03-13T15:43:23;3.83;;;0.80;;
1004;SDS011;491;53.480;10.174;2023-03-13T15:45:49;1.50;;;0.67;;
1004;SDS011;491;53.480;10.174;2023-03-13T15:48:17;7.27;;;1.10;;
1004;SDS011;491;53.480;10.174;2023-03-13T15:50:53;3.13;;;0.83;;
1004;SDS011;491;53.480;10.174;2023-03-13T15:53:29;0.70;;;0.20;;
1004;SDS011;491;53.480;10.174;2023-03-13T15:55:56;1.60;;;0.60;;
1004;SDS011;491;53.480;10.174;2023-03-13T15:58:23;1.57;;;0.40;;
1004;SDS011;491;53.480;10.174;2023-03-13T16:00:49;0.47;;;0.20;;
1004;SDS011;491;53.480;10.174;2023-03-13T16:03:20;0.90;;;0.23;;
1004;SDS011;491;53.480;10.174;2023-03-13T16:05:46;1.60;;;0.53;;
1004;SDS011;491;53.480;10.174;2023-03-13T16:08:20;1.33;;;0.57;;
1004;SDS011;491;53.480;10.174;2023-03-13T16:10:46;0.70;;;0.50;;
1004;SDS011;491;53.480;10.174;2023-03-13T16:13:12;1.73;;;0.50;;
1004;SDS011;491;53.480;10.174;2023-03-13T16:15:38;4.43;;;0.50;;
1004;SDS011;491;53.480;10.174;2023-03-13T16:18:04;2.23;;;0.37;;
1004;SDS011;491;53.480;10.174;2023-03-13T16:20:31;1.80;;;0.23;;